createdAt,value
2023-02-08T00:00:06.004Z,28.6
2023-02-08T00:05:44.134Z,28.5
2023-02-08T00:11:20.857Z,28.5
2023-02-08T00:16:58.085Z,28.4
2023-02-08T00:22:35.939Z,28.4
2023-02-08T00:28:15.586Z,28.4
2023-02-08T00:33:37.771Z,28.3
2023-02-08T00:39:14.992Z,28.3
2023-02-08T00:44:53.182Z,28.2
2023-02-08T00:50:30.896Z,28.1
2023-02-08T00:56:08.526Z,28.1
2023-02-08T01:01:44.523Z,28.1
2023-02-08T01:07:37.197Z,28
2023-02-08T01:13:15.636Z,27.9
2023-02-08T01:18:36.566Z,27.9
2023-02-08T01:23:43.102Z,27.9
2023-02-08T01:40:04.451Z,27.8
2023-02-08T01:45:27.442Z,27.8
2023-02-08T01:51:04.621Z,27.7
2023-02-08T01:56:41.305Z,27.6
2023-02-08T02:02:19.592Z,27.6
2023-02-08T02:07:55.877Z,27.9
2023-02-08T02:13:32.953Z,28.4
2023-02-08T02:19:10.660Z,28.9
2023-02-08T02:24:50.171Z,29.3
2023-02-08T02:30:26.928Z,29.7
2023-02-08T02:36:04.812Z,30.1
2023-02-08T02:41:41.292Z,30.5
2023-02-08T02:47:18.422Z,30.9
2023-02-08T02:52:40.538Z,31.3
2023-02-08T02:58:17.126Z,31.8
2023-02-08T03:03:38.865Z,32.3
2023-02-08T03:09:01.980Z,32.7
2023-02-08T03:14:37.443Z,33.2
2023-02-08T03:20:13.395Z,33.6
2023-02-08T03:25:50.766Z,33.9
2023-02-08T03:31:12.618Z,34.1
2023-02-08T03:36:34.588Z,34.3
2023-02-08T03:42:12.663Z,34.5
2023-02-08T03:47:49.251Z,34.6
2023-02-08T03:53:26.167Z,34.7
2023-02-08T03:59:03.815Z,34.8
2023-02-08T04:04:25.116Z,34.8
2023-02-08T04:09:45.632Z,34.8
2023-02-08T04:15:23.291Z,34.9
2023-02-08T04:20:59.659Z,34.9
2023-02-08T04:26:36.005Z,34.9
2023-02-08T04:32:15.319Z,34.8
2023-02-08T04:37:52.646Z,34.9
2023-02-08T04:43:29.374Z,34.9
2023-02-08T04:49:07.481Z,34.8
2023-02-08T04:54:45.868Z,34.8
2023-02-08T05:00:22.903Z,34.8
2023-02-08T05:06:00.795Z,34.7
2023-02-08T05:11:37.261Z,34.7
2023-02-08T05:17:17.379Z,34.7
2023-02-08T05:22:55.046Z,34.6
2023-02-08T05:28:33.169Z,34.6
2023-02-08T05:34:11.706Z,34.5
2023-02-08T05:39:50.253Z,34.5
2023-02-08T05:45:27.075Z,34.4
2023-02-08T05:50:51.262Z,34.4
2023-02-08T05:56:13.970Z,34.4
2023-02-08T06:01:50.734Z,34.3
2023-02-08T06:07:13.038Z,34.3
2023-02-08T06:12:36.049Z,34.2
2023-02-08T06:18:15.679Z,34.1
2023-02-08T06:23:53.076Z,34.1
2023-02-08T06:29:30.142Z,34.1
2023-02-08T06:35:11.053Z,34
2023-02-08T06:40:48.968Z,33.9
2023-02-08T06:46:36.083Z,33.9
2023-02-08T06:52:13.274Z,33.8
2023-02-08T06:57:50.115Z,33.8
2023-02-08T07:03:28.266Z,33.7
2023-02-08T07:09:12.514Z,33.6
2023-02-08T07:14:48.928Z,33.6
2023-02-08T07:20:11.619Z,33.5
2023-02-08T07:25:48.137Z,33.5
2023-02-08T07:31:24.668Z,33.4
2023-02-08T07:37:04.704Z,33.3
2023-02-08T07:42:40.786Z,50.3
2023-02-08T07:48:16.462Z,48.9
2023-02-08T07:53:54.218Z,45.6
2023-02-08T07:59:32.905Z,43.1
2023-02-08T08:05:19.291Z,41.1
2023-02-08T08:10:59.445Z,39.8
2023-02-08T08:16:20.607Z,51.9
2023-02-08T08:21:59.185Z,48.4
2023-02-08T08:27:37.545Z,53.1
2023-02-08T08:33:17.696Z,53.4
2023-02-08T08:38:55.008Z,54.3
2023-02-08T08:44:33.013Z,54.9
2023-02-08T08:49:54.063Z,55.7
2023-02-08T08:55:31.181Z,56.3
2023-02-08T09:00:53.000Z,56.9
2023-02-08T09:06:30.381Z,57.4
2023-02-08T09:12:07.105Z,57.9
2023-02-08T09:17:46.788Z,58.1
2023-02-08T09:23:24.206Z,58.4
2023-02-08T09:34:25.836Z,58.4
2023-02-08T09:40:02.916Z,58.9
2023-02-08T09:45:23.362Z,58.1
2023-02-08T09:51:11.858Z,57.3
2023-02-08T09:56:51.150Z,57
2023-02-08T10:02:13.119Z,58.7
2023-02-08T10:07:51.285Z,59.3
2023-02-08T10:13:30.270Z,59.7
2023-02-08T10:18:57.995Z,60.2
2023-02-08T10:24:35.598Z,60.6
2023-02-08T10:29:58.704Z,60.9
2023-02-08T10:35:39.896Z,60.6
2023-02-08T10:41:36.484Z,59.9
2023-02-08T10:47:36.861Z,60.3
2023-02-08T10:53:20.037Z,55.4
2023-02-08T10:58:48.295Z,51.5
2023-02-08T11:04:36.035Z,55.9
2023-02-08T11:10:20.573Z,59.3
2023-02-08T11:16:11.487Z,60.3
2023-02-08T11:21:54.067Z,60.3
2023-02-08T11:27:37.616Z,60.3
2023-02-08T11:33:22.435Z,55.9
2023-02-08T11:39:05.230Z,57.6
2023-02-08T11:44:48.455Z,59.6
2023-02-08T11:50:29.802Z,60.3
2023-02-08T11:55:53.246Z,60.6
2023-02-08T12:01:29.747Z,60.6
2023-02-08T12:06:21.822Z,60.7
2023-02-08T12:11:59.748Z,60
2023-02-08T12:17:54.746Z,60.3
2023-02-08T12:23:33.382Z,60.4
2023-02-08T12:29:12.716Z,60
2023-02-08T12:35:05.281Z,59.8
2023-02-08T12:41:17.296Z,59.9
2023-02-08T12:46:56.609Z,59.8
2023-02-08T12:52:48.907Z,59.3
2023-02-08T12:58:24.143Z,55.4
2023-02-08T13:04:00.480Z,51.3
2023-02-08T13:09:45.425Z,48.5
2023-02-08T13:15:47.449Z,46.3
2023-02-08T13:21:38.484Z,44.6
2023-02-08T13:27:38.625Z,43.3
2023-02-08T13:33:18.533Z,42.1
2023-02-08T13:39:19.990Z,41.3
2023-02-08T13:45:13.324Z,40.4
2023-02-08T13:50:51.775Z,39.7
2023-02-08T13:56:12.807Z,39
2023-02-08T14:01:50.167Z,38.3
2023-02-08T14:07:27.521Z,36.3
2023-02-08T14:13:07.826Z,33.9
2023-02-08T14:18:31.216Z,32.3
2023-02-08T14:24:07.927Z,30.9
2023-02-08T14:29:44.882Z,29.9
2023-02-08T14:35:23.905Z,29
2023-02-08T14:41:08.748Z,28.2
2023-02-08T14:46:33.994Z,27.5
2023-02-08T14:52:10.520Z,26.9
2023-02-08T14:57:31.924Z,26.4
2023-02-08T15:02:54.082Z,26
2023-02-08T15:08:39.133Z,25.9
2023-02-08T15:14:17.786Z,25.6
2023-02-08T15:19:58.070Z,25.3
2023-02-08T15:25:35.610Z,25
2023-02-08T15:31:23.570Z,24.8
2023-02-08T15:37:01.045Z,24.6
2023-02-08T15:42:38.529Z,24.4
2023-02-08T15:48:16.428Z,24.3
2023-02-08T15:53:53.221Z,24.1
2023-02-08T15:59:25.953Z,24
2023-02-08T16:04:48.928Z,23.9
2023-02-08T16:09:55.360Z,23.8
2023-02-08T16:15:42.274Z,23.8
2023-02-08T16:21:34.662Z,23.7
2023-02-08T16:26:56.689Z,23.6
2023-02-08T16:32:35.720Z,23.6
2023-02-08T16:38:13.347Z,23.5
2023-02-08T16:44:07.143Z,23.5
2023-02-08T16:49:57.271Z,23.4
2023-02-08T16:55:39.723Z,23.4
2023-02-08T17:01:01.710Z,23.4
2023-02-08T17:06:42.270Z,23.3
2023-02-08T17:12:33.239Z,23.2
2023-02-08T17:18:09.427Z,23.1
2023-02-08T17:23:46.749Z,23
2023-02-08T17:29:27.034Z,23
2023-02-08T17:34:50.294Z,22.9
2023-02-08T17:40:27.408Z,22.9
2023-02-08T17:46:04.754Z,22.9
2023-02-08T17:51:26.964Z,22.8
2023-02-08T17:56:51.660Z,22.8
2023-02-08T18:02:33.846Z,22.8
2023-02-08T18:08:12.049Z,22.7
2023-02-08T18:13:49.624Z,22.6
2023-02-08T18:19:28.662Z,22.5
2023-02-08T18:24:50.578Z,22.4
2023-02-08T18:30:28.588Z,22.4
2023-02-08T18:36:10.071Z,22.4
2023-02-08T18:41:48.280Z,22.3
2023-02-08T18:47:25.898Z,22.3
2023-02-08T18:53:21.025Z,22.3
2023-02-08T18:58:59.053Z,22.3
2023-02-08T19:04:22.434Z,22.3
2023-02-08T19:10:00.141Z,22.3
2023-02-08T19:15:38.185Z,22.3
2023-02-08T19:21:15.776Z,22.2
2023-02-08T19:26:38.242Z,22.3
2023-02-08T19:32:16.493Z,22.2
2023-02-08T19:37:53.849Z,22
2023-02-08T19:43:31.318Z,21.8
2023-02-08T19:49:29.382Z,21.7
2023-02-08T19:54:50.702Z,21.6
2023-02-08T20:00:22.853Z,21.5
2023-02-08T20:06:07.240Z,21.4
2023-02-08T20:11:56.263Z,21.4
2023-02-08T20:17:37.806Z,21.5
2023-02-08T20:23:22.264Z,22.5
2023-02-08T20:29:00.494Z,24.1
2023-02-08T20:34:40.919Z,25.7
2023-02-08T20:40:32.007Z,27.3
2023-02-08T20:46:09.382Z,28.7
2023-02-08T20:52:03.112Z,29.6
2023-02-08T20:57:40.533Z,30.5
2023-02-08T21:03:27.519Z,31.2
2023-02-08T21:08:49.695Z,31.8
2023-02-08T21:14:28.759Z,32.4
2023-02-08T21:20:09.152Z,32.8
2023-02-08T21:25:47.269Z,33
2023-02-08T21:31:25.285Z,33.2
2023-02-08T21:37:05.110Z,33.3
2023-02-08T21:42:42.464Z,33.5
2023-02-08T21:48:20.675Z,33.6
2023-02-08T21:53:42.068Z,33.6
2023-02-08T21:59:21.484Z,33.7
2023-02-08T22:04:44.207Z,33.8
2023-02-08T22:10:20.441Z,33.8
2023-02-08T22:16:01.697Z,33.8
2023-02-08T22:21:39.357Z,33.8
2023-02-08T22:27:15.913Z,33.8
2023-02-08T22:32:55.941Z,33.8
2023-02-08T22:38:17.960Z,33.8
2023-02-08T22:43:54.832Z,33.7
2023-02-08T22:49:32.289Z,33.7
2023-02-08T22:55:09.433Z,33.6
2023-02-08T23:00:46.261Z,33.6
2023-02-08T23:06:23.929Z,33.6
2023-02-08T23:12:01.026Z,33.5
2023-02-08T23:17:38.462Z,33.4
2023-02-08T23:23:18.599Z,33.4
2023-02-08T23:28:56.063Z,33.3
2023-02-08T23:39:54.487Z,33.3
2023-02-08T23:45:32.517Z,33.2
2023-02-08T23:50:54.571Z,33.1
2023-02-08T23:56:32.482Z,33.1
